sensor_id;sensor_type;location;lat;lon;timestamp;temperature;humidity
25128;DHT22;13107;51.304;6.866;2022-09-09T00:01:41;14.50;99.90
25128;DHT22;13107;51.304;6.866;2022-09-09T00:06:03;14.50;99.90
25128;DHT22;13107;51.304;6.866;2022-09-09T00:10:39;14.50;99.90
25128;DHT22;13107;51.304;6.866;2022-09-09T00:14:56;14.50;99.90
25128;DHT22;13107;51.304;6.866;2022-09-09T00:19:24;14.40;99.90
25128;DHT22;13107;51.304;6.866;2022-09-09T00:27:45;14.30;99.90
25128;DHT22;13107;51.304;6.866;2022-09-09T00:31:47;14.20;99.90
25128;DHT22;13107;51.304;6.866;2022-09-09T00:35:54;14.10;99.90
25128;DHT22;13107;51.304;6.866;2022-09-09T00:40:01;14.10;99.90
25128;DHT22;13107;51.304;6.866;2022-09-09T00:53:05;14.00;99.90
25128;DHT22;13107;51.304;6.866;2022-09-09T00:57:29;14.00;99.90
25128;DHT22;13107;51.304;6.866;2022-09-09T01:01:31;14.00;99.90
25128;DHT22;13107;51.304;6.866;2022-09-09T01:09:57;14.00;99.90
25128;DHT22;13107;51.304;6.866;2022-09-09T01:18:44;14.10;99.90
25128;DHT22;13107;51.304;6.866;2022-09-09T01:27:01;14.20;99.90
25128;DHT22;13107;51.304;6.866;2022-09-09T01:31:05;14.10;99.90
25128;DHT22;13107;51.304;6.866;2022-09-09T01:35:15;14.10;99.90
25128;DHT22;13107;51.304;6.866;2022-09-09T01:39:19;14.10;99.90
25128;DHT22;13107;51.304;6.866;2022-09-09T01:43:22;14.00;99.90
25128;DHT22;13107;51.304;6.866;2022-09-09T01:47:25;14.00;99.90
25128;DHT22;13107;51.304;6.866;2022-09-09T01:51:27;14.00;99.90
25128;DHT22;13107;51.304;6.866;2022-09-09T01:55:30;13.90;99.90
25128;DHT22;13107;51.304;6.866;2022-09-09T01:59:36;13.80;99.90
25128;DHT22;13107;51.304;6.866;2022-09-09T02:03:46;13.90;99.90
25128;DHT22;13107;51.304;6.866;2022-09-09T02:07:51;13.90;99.90
25128;DHT22;13107;51.304;6.866;2022-09-09T02:12:13;14.00;99.90
25128;DHT22;13107;51.304;6.866;2022-09-09T02:20:31;14.10;99.90
25128;DHT22;13107;51.304;6.866;2022-09-09T02:24:39;14.10;99.90
25128;DHT22;13107;51.304;6.866;2022-09-09T02:28:41;14.20;99.90
25128;DHT22;13107;51.304;6.866;2022-09-09T02:32:45;14.20;99.90
25128;DHT22;13107;51.304;6.866;2022-09-09T02:36:48;14.30;99.90
25128;DHT22;13107;51.304;6.866;2022-09-09T02:40:50;14.40;99.90
25128;DHT22;13107;51.304;6.866;2022-09-09T02:44:53;14.40;99.90
25128;DHT22;13107;51.304;6.866;2022-09-09T02:49:09;14.40;99.90
25128;DHT22;13107;51.304;6.866;2022-09-09T02:53:22;14.50;99.90
25128;DHT22;13107;51.304;6.866;2022-09-09T02:57:29;14.60;99.90
25128;DHT22;13107;51.304;6.866;2022-09-09T03:01:32;14.60;99.90
25128;DHT22;13107;51.304;6.866;2022-09-09T03:05:34;14.70;99.90
25128;DHT22;13107;51.304;6.866;2022-09-09T03:09:35;14.80;99.90
25128;DHT22;13107;51.304;6.866;2022-09-09T03:13:37;14.70;99.90
25128;DHT22;13107;51.304;6.866;2022-09-09T03:17:39;14.70;99.90
25128;DHT22;13107;51.304;6.866;2022-09-09T03:21:41;14.80;99.90
25128;DHT22;13107;51.304;6.866;2022-09-09T03:26:03;14.80;99.90
25128;DHT22;13107;51.304;6.866;2022-09-09T03:30:05;14.80;99.90
25128;DHT22;13107;51.304;6.866;2022-09-09T03:34:06;14.80;99.90
25128;DHT22;13107;51.304;6.866;2022-09-09T03:38:08;14.90;99.90
25128;DHT22;13107;51.304;6.866;2022-09-09T03:42:14;14.90;99.90
25128;DHT22;13107;51.304;6.866;2022-09-09T03:46:21;14.90;99.90
25128;DHT22;13107;51.304;6.866;2022-09-09T03:50:23;14.90;99.90
25128;DHT22;13107;51.304;6.866;2022-09-09T03:54:25;14.90;99.90
25128;DHT22;13107;51.304;6.866;2022-09-09T03:58:27;14.90;99.90
25128;DHT22;13107;51.304;6.866;2022-09-09T04:02:29;14.90;99.90
25128;DHT22;13107;51.304;6.866;2022-09-09T04:06:31;14.80;99.90
25128;DHT22;13107;51.304;6.866;2022-09-09T04:10:33;14.80;99.90
25128;DHT22;13107;51.304;6.866;2022-09-09T04:14:35;14.70;99.90
25128;DHT22;13107;51.304;6.866;2022-09-09T04:18:36;14.70;99.90
25128;DHT22;13107;51.304;6.866;2022-09-09T04:22:38;14.50;99.90
25128;DHT22;13107;51.304;6.866;2022-09-09T04:26:40;14.50;99.90
25128;DHT22;13107;51.304;6.866;2022-09-09T04:30:44;14.50;99.90
25128;DHT22;13107;51.304;6.866;2022-09-09T04:34:45;14.50;99.90
25128;DHT22;13107;51.304;6.866;2022-09-09T04:38:49;14.60;99.90
25128;DHT22;13107;51.304;6.866;2022-09-09T04:42:51;14.60;99.90
25128;DHT22;13107;51.304;6.866;2022-09-09T04:46:52;14.70;99.90
25128;DHT22;13107;51.304;6.866;2022-09-09T04:50:59;14.70;99.90
25128;DHT22;13107;51.304;6.866;2022-09-09T04:55:01;14.70;99.90
25128;DHT22;13107;51.304;6.866;2022-09-09T04:59:03;14.70;99.90
25128;DHT22;13107;51.304;6.866;2022-09-09T05:03:06;14.70;99.90
25128;DHT22;13107;51.304;6.866;2022-09-09T05:07:08;14.70;99.90
25128;DHT22;13107;51.304;6.866;2022-09-09T05:11:22;14.70;99.90
25128;DHT22;13107;51.304;6.866;2022-09-09T05:15:25;14.80;99.90
25128;DHT22;13107;51.304;6.866;2022-09-09T05:19:27;14.80;99.90
25128;DHT22;13107;51.304;6.866;2022-09-09T05:23:28;14.90;99.90
25128;DHT22;13107;51.304;6.866;2022-09-09T05:27:30;14.90;99.90
25128;DHT22;13107;51.304;6.866;2022-09-09T05:31:32;14.90;99.90
25128;DHT22;13107;51.304;6.866;2022-09-09T05:35:34;15.00;99.90
25128;DHT22;13107;51.304;6.866;2022-09-09T05:39:36;15.00;99.90
25128;DHT22;13107;51.304;6.866;2022-09-09T05:43:39;15.10;99.90
25128;DHT22;13107;51.304;6.866;2022-09-09T05:47:40;15.10;99.90
25128;DHT22;13107;51.304;6.866;2022-09-09T05:51:42;15.10;99.90
25128;DHT22;13107;51.304;6.866;2022-09-09T05:55:44;15.10;99.90
25128;DHT22;13107;51.304;6.866;2022-09-09T05:59:46;15.20;99.90
25128;DHT22;13107;51.304;6.866;2022-09-09T06:03:49;15.30;99.90
25128;DHT22;13107;51.304;6.866;2022-09-09T06:07:52;15.40;99.90
25128;DHT22;13107;51.304;6.866;2022-09-09T06:11:54;15.40;99.90
25128;DHT22;13107;51.304;6.866;2022-09-09T06:15:56;15.50;99.90
25128;DHT22;13107;51.304;6.866;2022-09-09T06:19:58;15.60;99.90
25128;DHT22;13107;51.304;6.866;2022-09-09T06:24:00;15.70;99.90
25128;DHT22;13107;51.304;6.866;2022-09-09T06:28:02;15.70;99.90
25128;DHT22;13107;51.304;6.866;2022-09-09T06:32:04;15.80;99.90
25128;DHT22;13107;51.304;6.866;2022-09-09T06:36:20;15.90;99.90
25128;DHT22;13107;51.304;6.866;2022-09-09T06:40:22;15.90;99.90
25128;DHT22;13107;51.304;6.866;2022-09-09T06:44:24;16.20;99.90
25128;DHT22;13107;51.304;6.866;2022-09-09T06:48:31;16.20;99.90
25128;DHT22;13107;51.304;6.866;2022-09-09T06:52:32;16.30;99.90
25128;DHT22;13107;51.304;6.866;2022-09-09T06:56:37;16.30;99.90
25128;DHT22;13107;51.304;6.866;2022-09-09T07:00:39;16.60;99.90
25128;DHT22;13107;51.304;6.866;2022-09-09T07:04:40;16.70;99.90
25128;DHT22;13107;51.304;6.866;2022-09-09T07:08:42;16.80;99.90
25128;DHT22;13107;51.304;6.866;2022-09-09T07:12:56;16.90;99.90
25128;DHT22;13107;51.304;6.866;2022-09-09T07:16:58;16.90;99.90
25128;DHT22;13107;51.304;6.866;2022-09-09T07:21:00;17.00;99.90
25128;DHT22;13107;51.304;6.866;2022-09-09T07:25:04;17.00;99.90
25128;DHT22;13107;51.304;6.866;2022-09-09T07:29:07;17.10;99.90
25128;DHT22;13107;51.304;6.866;2022-09-09T07:33:09;17.10;99.90
25128;DHT22;13107;51.304;6.866;2022-09-09T07:37:11;17.10;99.90
25128;DHT22;13107;51.304;6.866;2022-09-09T07:41:27;17.10;99.90
25128;DHT22;13107;51.304;6.866;2022-09-09T07:45:28;17.20;99.90
25128;DHT22;13107;51.304;6.866;2022-09-09T07:49:31;17.20;99.90
25128;DHT22;13107;51.304;6.866;2022-09-09T07:53:34;17.20;99.90
25128;DHT22;13107;51.304;6.866;2022-09-09T07:57:37;17.30;99.90
25128;DHT22;13107;51.304;6.866;2022-09-09T08:01:48;17.60;99.90
25128;DHT22;13107;51.304;6.866;2022-09-09T08:05:50;17.60;99.90
25128;DHT22;13107;51.304;6.866;2022-09-09T08:09:51;17.80;99.90
25128;DHT22;13107;51.304;6.866;2022-09-09T08:13:53;17.90;99.90
25128;DHT22;13107;51.304;6.866;2022-09-09T08:18:02;17.80;99.90
25128;DHT22;13107;51.304;6.866;2022-09-09T08:22:06;17.80;99.90
25128;DHT22;13107;51.304;6.866;2022-09-09T08:26:16;17.80;99.90
25128;DHT22;13107;51.304;6.866;2022-09-09T08:30:18;17.90;99.90
25128;DHT22;13107;51.304;6.866;2022-09-09T08:34:21;18.00;99.90
25128;DHT22;13107;51.304;6.866;2022-09-09T08:38:23;18.00;99.90
25128;DHT22;13107;51.304;6.866;2022-09-09T08:42:36;18.30;99.90
25128;DHT22;13107;51.304;6.866;2022-09-09T08:50:59;18.80;99.90
25128;DHT22;13107;51.304;6.866;2022-09-09T08:55:22;18.90;99.90
25128;DHT22;13107;51.304;6.866;2022-09-09T08:59:26;18.90;99.90
25128;DHT22;13107;51.304;6.866;2022-09-09T09:03:48;18.80;99.90
25128;DHT22;13107;51.304;6.866;2022-09-09T09:08:12;18.70;99.90
25128;DHT22;13107;51.304;6.866;2022-09-09T09:12:20;18.70;99.90
25128;DHT22;13107;51.304;6.866;2022-09-09T09:16:50;18.80;99.90
25128;DHT22;13107;51.304;6.866;2022-09-09T09:21:02;18.70;99.90
25128;DHT22;13107;51.304;6.866;2022-09-09T09:29:20;18.60;99.90
25128;DHT22;13107;51.304;6.866;2022-09-09T09:37:42;18.60;99.90
25128;DHT22;13107;51.304;6.866;2022-09-09T09:42:12;18.50;99.90
25128;DHT22;13107;51.304;6.866;2022-09-09T09:46:23;18.50;99.90
25128;DHT22;13107;51.304;6.866;2022-09-09T09:50:25;18.50;99.90
25128;DHT22;13107;51.304;6.866;2022-09-09T09:54:29;18.60;99.90
25128;DHT22;13107;51.304;6.866;2022-09-09T10:02:41;19.70;99.90
25128;DHT22;13107;51.304;6.866;2022-09-09T10:06:45;20.70;99.90
25128;DHT22;13107;51.304;6.866;2022-09-09T10:11:13;20.90;99.90
25128;DHT22;13107;51.304;6.866;2022-09-09T10:15:28;20.70;99.90
25128;DHT22;13107;51.304;6.866;2022-09-09T10:19:34;20.50;99.90
25128;DHT22;13107;51.304;6.866;2022-09-09T10:23:48;20.40;99.90
25128;DHT22;13107;51.304;6.866;2022-09-09T10:28:15;20.30;99.90
25128;DHT22;13107;51.304;6.866;2022-09-09T10:36:46;20.30;99.90
25128;DHT22;13107;51.304;6.866;2022-09-09T10:45:23;20.20;99.90
25128;DHT22;13107;51.304;6.866;2022-09-09T10:50:18;20.00;99.90
25128;DHT22;13107;51.304;6.866;2022-09-09T10:59:04;19.80;99.90
25128;DHT22;13107;51.304;6.866;2022-09-09T11:03:08;20.00;99.90
25128;DHT22;13107;51.304;6.866;2022-09-09T11:07:28;20.30;99.90
25128;DHT22;13107;51.304;6.866;2022-09-09T11:11:39;20.20;99.90
25128;DHT22;13107;51.304;6.866;2022-09-09T11:15:46;20.40;99.90
25128;DHT22;13107;51.304;6.866;2022-09-09T11:19:51;20.80;99.90
25128;DHT22;13107;51.304;6.866;2022-09-09T11:23:57;21.10;99.90
25128;DHT22;13107;51.304;6.866;2022-09-09T11:37:08;20.00;99.90
25128;DHT22;13107;51.304;6.866;2022-09-09T11:41:14;19.60;99.90
25128;DHT22;13107;51.304;6.866;2022-09-09T11:45:25;19.40;99.90
25128;DHT22;13107;51.304;6.866;2022-09-09T11:49:42;19.40;99.90
25128;DHT22;13107;51.304;6.866;2022-09-09T11:53:52;19.30;99.90
25128;DHT22;13107;51.304;6.866;2022-09-09T12:02:13;19.60;99.90
25128;DHT22;13107;51.304;6.866;2022-09-09T12:06:25;19.70;99.90
25128;DHT22;13107;51.304;6.866;2022-09-09T12:10:37;19.60;99.90
25128;DHT22;13107;51.304;6.866;2022-09-09T12:14:55;19.60;99.90
25128;DHT22;13107;51.304;6.866;2022-09-09T12:19:05;19.40;99.90
25128;DHT22;13107;51.304;6.866;2022-09-09T12:27:27;19.40;99.90
25128;DHT22;13107;51.304;6.866;2022-09-09T12:35:57;20.10;99.90
25128;DHT22;13107;51.304;6.866;2022-09-09T12:40:01;20.60;99.90
25128;DHT22;13107;51.304;6.866;2022-09-09T12:44:06;20.50;99.90
25128;DHT22;13107;51.304;6.866;2022-09-09T12:48:10;20.40;99.90
25128;DHT22;13107;51.304;6.866;2022-09-09T12:52:23;20.30;99.90
25128;DHT22;13107;51.304;6.866;2022-09-09T12:56:30;20.10;99.90
25128;DHT22;13107;51.304;6.866;2022-09-09T13:00:33;20.20;99.90
25128;DHT22;13107;51.304;6.866;2022-09-09T13:04:35;20.30;99.90
25128;DHT22;13107;51.304;6.866;2022-09-09T13:08:37;20.20;99.90
25128;DHT22;13107;51.304;6.866;2022-09-09T13:12:40;19.90;99.90
25128;DHT22;13107;51.304;6.866;2022-09-09T13:16:53;19.80;99.90
25128;DHT22;13107;51.304;6.866;2022-09-09T13:20:56;19.50;99.90
25128;DHT22;13107;51.304;6.866;2022-09-09T13:29:18;18.90;99.90
25128;DHT22;13107;51.304;6.866;2022-09-09T13:33:23;18.90;99.90
25128;DHT22;13107;51.304;6.866;2022-09-09T13:37:36;19.00;99.90
25128;DHT22;13107;51.304;6.866;2022-09-09T13:41:45;18.90;99.90
25128;DHT22;13107;51.304;6.866;2022-09-09T13:46:02;19.00;99.90
25128;DHT22;13107;51.304;6.866;2022-09-09T13:54:24;19.30;99.90
25128;DHT22;13107;51.304;6.866;2022-09-09T13:58:26;19.40;99.90
25128;DHT22;13107;51.304;6.866;2022-09-09T14:02:28;19.50;99.90
25128;DHT22;13107;51.304;6.866;2022-09-09T14:06:29;19.60;99.90
25128;DHT22;13107;51.304;6.866;2022-09-09T14:10:31;19.60;99.90
25128;DHT22;13107;51.304;6.866;2022-09-09T14:14:33;19.50;99.90
25128;DHT22;13107;51.304;6.866;2022-09-09T14:18:35;19.50;99.90
25128;DHT22;13107;51.304;6.866;2022-09-09T14:22:37;19.60;99.90
25128;DHT22;13107;51.304;6.866;2022-09-09T14:26:40;19.70;99.90
25128;DHT22;13107;51.304;6.866;2022-09-09T14:30:43;19.80;99.90
25128;DHT22;13107;51.304;6.866;2022-09-09T14:34:45;19.80;99.90
25128;DHT22;13107;51.304;6.866;2022-09-09T14:38:47;19.90;99.90
25128;DHT22;13107;51.304;6.866;2022-09-09T14:42:49;19.80;99.90
25128;DHT22;13107;51.304;6.866;2022-09-09T14:46:51;19.30;99.90
25128;DHT22;13107;51.304;6.866;2022-09-09T14:50:52;18.60;99.90
25128;DHT22;13107;51.304;6.866;2022-09-09T14:54:54;18.20;99.90
25128;DHT22;13107;51.304;6.866;2022-09-09T14:58:57;17.50;99.90
25128;DHT22;13107;51.304;6.866;2022-09-09T15:02:59;17.10;99.90
25128;DHT22;13107;51.304;6.866;2022-09-09T15:07:01;16.90;99.90
25128;DHT22;13107;51.304;6.866;2022-09-09T15:11:04;16.90;99.90
25128;DHT22;13107;51.304;6.866;2022-09-09T15:15:06;16.70;99.90
25128;DHT22;13107;51.304;6.866;2022-09-09T15:19:08;16.50;99.90
25128;DHT22;13107;51.304;6.866;2022-09-09T15:23:10;16.30;99.90
25128;DHT22;13107;51.304;6.866;2022-09-09T15:27:12;16.20;99.90
25128;DHT22;13107;51.304;6.866;2022-09-09T15:31:21;16.10;99.90
25128;DHT22;13107;51.304;6.866;2022-09-09T15:35:23;16.00;99.90
25128;DHT22;13107;51.304;6.866;2022-09-09T15:39:24;16.10;99.90
25128;DHT22;13107;51.304;6.866;2022-09-09T15:43:26;16.10;99.90
25128;DHT22;13107;51.304;6.866;2022-09-09T15:47:27;16.40;99.90
25128;DHT22;13107;51.304;6.866;2022-09-09T15:51:30;16.60;99.90
25128;DHT22;13107;51.304;6.866;2022-09-09T15:55:43;16.70;99.90
25128;DHT22;13107;51.304;6.866;2022-09-09T15:59:47;17.00;99.90
25128;DHT22;13107;51.304;6.866;2022-09-09T16:03:49;17.10;99.90
25128;DHT22;13107;51.304;6.866;2022-09-09T16:07:54;17.20;99.90
25128;DHT22;13107;51.304;6.866;2022-09-09T16:11:58;17.20;99.90
25128;DHT22;13107;51.304;6.866;2022-09-09T16:16:01;17.20;99.90
25128;DHT22;13107;51.304;6.866;2022-09-09T16:20:03;17.20;99.90
25128;DHT22;13107;51.304;6.866;2022-09-09T16:24:09;17.10;99.90
25128;DHT22;13107;51.304;6.866;2022-09-09T16:28:11;17.10;99.90
25128;DHT22;13107;51.304;6.866;2022-09-09T16:32:13;17.10;99.90
25128;DHT22;13107;51.304;6.866;2022-09-09T16:36:36;17.10;99.90
25128;DHT22;13107;51.304;6.866;2022-09-09T16:40:38;17.10;99.90
25128;DHT22;13107;51.304;6.866;2022-09-09T16:44:42;16.90;99.90
25128;DHT22;13107;51.304;6.866;2022-09-09T16:48:45;16.90;99.90
25128;DHT22;13107;51.304;6.866;2022-09-09T16:52:47;16.70;99.90
25128;DHT22;13107;51.304;6.866;2022-09-09T16:56:49;16.70;99.90
25128;DHT22;13107;51.304;6.866;2022-09-09T17:00:50;16.60;99.90
25128;DHT22;13107;51.304;6.866;2022-09-09T17:04:52;16.50;99.90
25128;DHT22;13107;51.304;6.866;2022-09-09T17:08:58;16.60;99.90
25128;DHT22;13107;51.304;6.866;2022-09-09T17:13:00;16.60;99.90
25128;DHT22;13107;51.304;6.866;2022-09-09T17:17:03;16.60;99.90
25128;DHT22;13107;51.304;6.866;2022-09-09T17:21:27;16.50;99.90
25128;DHT22;13107;51.304;6.866;2022-09-09T17:25:28;16.50;99.90
25128;DHT22;13107;51.304;6.866;2022-09-09T17:29:30;16.40;99.90
25128;DHT22;13107;51.304;6.866;2022-09-09T17:33:37;16.40;99.90
25128;DHT22;13107;51.304;6.866;2022-09-09T17:37:39;16.30;99.90
25128;DHT22;13107;51.304;6.866;2022-09-09T17:41:41;16.20;99.90
25128;DHT22;13107;51.304;6.866;2022-09-09T17:45:42;16.20;99.90
25128;DHT22;13107;51.304;6.866;2022-09-09T17:49:45;16.20;99.90
25128;DHT22;13107;51.304;6.866;2022-09-09T17:53:49;16.10;99.90
25128;DHT22;13107;51.304;6.866;2022-09-09T17:57:51;16.10;99.90
25128;DHT22;13107;51.304;6.866;2022-09-09T18:01:53;16.10;99.90
25128;DHT22;13107;51.304;6.866;2022-09-09T18:06:03;16.10;99.90
25128;DHT22;13107;51.304;6.866;2022-09-09T18:10:05;16.10;99.90
25128;DHT22;13107;51.304;6.866;2022-09-09T18:14:09;16.00;99.90
25128;DHT22;13107;51.304;6.866;2022-09-09T18:18:13;16.10;99.90
25128;DHT22;13107;51.304;6.866;2022-09-09T18:22:14;16.10;99.90
25128;DHT22;13107;51.304;6.866;2022-09-09T18:26:22;16.00;99.90
25128;DHT22;13107;51.304;6.866;2022-09-09T18:30:27;16.00;99.90
25128;DHT22;13107;51.304;6.866;2022-09-09T18:34:30;16.00;99.90
25128;DHT22;13107;51.304;6.866;2022-09-09T18:38:33;16.10;99.90
25128;DHT22;13107;51.304;6.866;2022-09-09T18:42:36;16.10;99.90
25128;DHT22;13107;51.304;6.866;2022-09-09T18:46:37;16.10;99.90
25128;DHT22;13107;51.304;6.866;2022-09-09T18:50:40;16.10;99.90
25128;DHT22;13107;51.304;6.866;2022-09-09T18:54:42;16.10;99.90
25128;DHT22;13107;51.304;6.866;2022-09-09T18:58:51;16.10;99.90
25128;DHT22;13107;51.304;6.866;2022-09-09T19:02:53;16.10;99.90
25128;DHT22;13107;51.304;6.866;2022-09-09T19:06:55;16.00;99.90
25128;DHT22;13107;51.304;6.866;2022-09-09T19:11:04;16.00;99.90
25128;DHT22;13107;51.304;6.866;2022-09-09T19:15:06;15.90;99.90
25128;DHT22;13107;51.304;6.866;2022-09-09T19:19:12;15.80;99.90
25128;DHT22;13107;51.304;6.866;2022-09-09T19:23:14;15.70;99.90
25128;DHT22;13107;51.304;6.866;2022-09-09T19:27:16;15.80;99.90
25128;DHT22;13107;51.304;6.866;2022-09-09T19:31:18;15.80;99.90
25128;DHT22;13107;51.304;6.866;2022-09-09T19:35:21;15.70;99.90
25128;DHT22;13107;51.304;6.866;2022-09-09T19:39:23;15.70;99.90
25128;DHT22;13107;51.304;6.866;2022-09-09T19:43:25;15.70;99.90
25128;DHT22;13107;51.304;6.866;2022-09-09T19:47:26;15.80;99.90
25128;DHT22;13107;51.304;6.866;2022-09-09T19:51:29;15.80;99.90
25128;DHT22;13107;51.304;6.866;2022-09-09T19:55:31;15.80;99.90
25128;DHT22;13107;51.304;6.866;2022-09-09T19:59:33;15.70;99.90
25128;DHT22;13107;51.304;6.866;2022-09-09T20:03:37;15.90;99.90
25128;DHT22;13107;51.304;6.866;2022-09-09T20:07:39;15.80;99.90
25128;DHT22;13107;51.304;6.866;2022-09-09T20:11:42;15.80;99.90
25128;DHT22;13107;51.304;6.866;2022-09-09T20:15:44;15.80;99.90
25128;DHT22;13107;51.304;6.866;2022-09-09T20:19:45;15.80;99.90
25128;DHT22;13107;51.304;6.866;2022-09-09T20:23:48;15.90;99.90
25128;DHT22;13107;51.304;6.866;2022-09-09T20:27:50;15.90;99.90
25128;DHT22;13107;51.304;6.866;2022-09-09T20:31:51;15.90;99.90
25128;DHT22;13107;51.304;6.866;2022-09-09T20:35:53;15.90;99.90
25128;DHT22;13107;51.304;6.866;2022-09-09T20:39:55;15.90;99.90
25128;DHT22;13107;51.304;6.866;2022-09-09T20:43:59;15.90;99.90
25128;DHT22;13107;51.304;6.866;2022-09-09T20:48:05;15.90;99.90
25128;DHT22;13107;51.304;6.866;2022-09-09T20:52:07;15.80;99.90
25128;DHT22;13107;51.304;6.866;2022-09-09T20:56:11;15.80;99.90
25128;DHT22;13107;51.304;6.866;2022-09-09T21:00:13;15.80;99.90
25128;DHT22;13107;51.304;6.866;2022-09-09T21:04:17;15.80;99.90
25128;DHT22;13107;51.304;6.866;2022-09-09T21:08:19;15.80;99.90
25128;DHT22;13107;51.304;6.866;2022-09-09T21:12:20;15.80;99.90
25128;DHT22;13107;51.304;6.866;2022-09-09T21:16:23;15.90;99.90
25128;DHT22;13107;51.304;6.866;2022-09-09T21:20:24;15.90;99.90
25128;DHT22;13107;51.304;6.866;2022-09-09T21:24:26;15.90;99.90
25128;DHT22;13107;51.304;6.866;2022-09-09T21:28:28;15.80;99.90
25128;DHT22;13107;51.304;6.866;2022-09-09T21:32:30;15.70;99.90
25128;DHT22;13107;51.304;6.866;2022-09-09T21:36:31;15.60;99.90
25128;DHT22;13107;51.304;6.866;2022-09-09T21:40:37;15.60;99.90
25128;DHT22;13107;51.304;6.866;2022-09-09T21:44:39;15.60;99.90
25128;DHT22;13107;51.304;6.866;2022-09-09T21:48:41;15.50;99.90
25128;DHT22;13107;51.304;6.866;2022-09-09T21:52:43;15.50;99.90
25128;DHT22;13107;51.304;6.866;2022-09-09T21:56:44;15.40;99.90
25128;DHT22;13107;51.304;6.866;2022-09-09T22:00:49;15.40;99.90
25128;DHT22;13107;51.304;6.866;2022-09-09T22:04:51;15.40;99.90
25128;DHT22;13107;51.304;6.866;2022-09-09T22:08:53;15.30;99.90
25128;DHT22;13107;51.304;6.866;2022-09-09T22:12:59;15.30;99.90
25128;DHT22;13107;51.304;6.866;2022-09-09T22:17:01;15.30;99.90
25128;DHT22;13107;51.304;6.866;2022-09-09T22:21:08;15.20;99.90
25128;DHT22;13107;51.304;6.866;2022-09-09T22:25:10;15.20;99.90
25128;DHT22;13107;51.304;6.866;2022-09-09T22:29:12;15.00;99.90
25128;DHT22;13107;51.304;6.866;2022-09-09T22:33:14;14.90;99.90
25128;DHT22;13107;51.304;6.866;2022-09-09T22:37:15;14.80;99.90
25128;DHT22;13107;51.304;6.866;2022-09-09T22:41:18;14.80;99.90
25128;DHT22;13107;51.304;6.866;2022-09-09T22:45:20;14.90;99.90
25128;DHT22;13107;51.304;6.866;2022-09-09T22:49:22;14.90;99.90
25128;DHT22;13107;51.304;6.866;2022-09-09T22:53:24;15.00;99.90
25128;DHT22;13107;51.304;6.866;2022-09-09T22:57:26;15.10;99.90
25128;DHT22;13107;51.304;6.866;2022-09-09T23:01:28;15.10;99.90
25128;DHT22;13107;51.304;6.866;2022-09-09T23:05:30;15.10;99.90
25128;DHT22;13107;51.304;6.866;2022-09-09T23:09:32;15.20;99.90
25128;DHT22;13107;51.304;6.866;2022-09-09T23:13:35;15.20;99.90
25128;DHT22;13107;51.304;6.866;2022-09-09T23:17:38;15.20;99.90
25128;DHT22;13107;51.304;6.866;2022-09-09T23:21:43;15.20;99.90
25128;DHT22;13107;51.304;6.866;2022-09-09T23:25:45;15.20;99.90
25128;DHT22;13107;51.304;6.866;2022-09-09T23:29:47;15.20;99.90
25128;DHT22;13107;51.304;6.866;2022-09-09T23:33:49;15.30;99.90
25128;DHT22;13107;51.304;6.866;2022-09-09T23:37:51;15.30;99.90
25128;DHT22;13107;51.304;6.866;2022-09-09T23:41:52;15.40;99.90
25128;DHT22;13107;51.304;6.866;2022-09-09T23:45:54;15.40;99.90
25128;DHT22;13107;51.304;6.866;2022-09-09T23:49:57;15.50;99.90
25128;DHT22;13107;51.304;6.866;2022-09-09T23:54:00;15.40;99.90
25128;DHT22;13107;51.304;6.866;2022-09-09T23:58:04;15.50;99.90
